Terminal Aerodrome Forecast
Issued by NWS Austin/San Antonio, TX

Home | Current Version | Previous Version | Text Only | Print | Product List | Glossary On
Versions: 1 2 3 4 5 6 7 8 9 10 11 12 13 14 15 16 17 18 19 20 21 22 23 24 25 26 27 28 29 30 31
911
FTUS44 KEWX 201316 AAB
TAFSAT
TAF AMD
KSAT 201316Z 2013/2118 09006KT 4SM BR SCT007 OVC150
      TEMPO 2013/2015 BKN004
     FM201500 32006KT P6SM FEW070 BKN150
     FM201900 26005KT P6SM FEW200
     FM210900 32010KT P6SM SKC=

USA.gov is the U.S. government's official web portal to all federal, state and local government web resources and services.